Time;durP1;ratioP1;P1;durP2;ratioP2;P2;SDS_P1;SDS_P2;PMS_P1;PMS_P2;Temp;Humidity;BMP_temperature;BMP_pressure;BME280_temperature;BME280_humidity;BME280_pressure;Samples;Min_cycle;Max_cycle;Signal;HPM_P1;HPM_P2
2023/10/01 06:34:03;;;;;;;;;10.67;9.00;;;;;21.26;57.80;102102.38;5068795;27;45716;-86
2023/10/01 06:36:29;;;;;;;;;8.33;8.33;;;;;21.41;57.09;102100.28;5060307;28;45782;-85
2023/10/01 06:38:55;;;;;;;;;9.00;9.00;;;;;21.62;57.51;102104.97;5068850;27;45937;-87
2023/10/01 06:41:25;;;;;;;;;10.33;6.67;;;;;21.83;56.57;102105.13;5066694;28;46931;-86
2023/10/01 06:43:56;;;;;;;;;8.00;8.00;;;;;22.07;56.33;102106.81;5069113;28;45524;-85
2023/10/01 06:46:28;;;;;;;;;12.00;9.67;;;;;22.31;55.32;102112.03;5054176;27;45779;-80
2023/10/01 06:48:58;;;;;;;;;7.00;7.00;;;;;22.55;55.21;102112.84;5059151;28;45503;-88
2023/10/01 06:51:26;;;;;;;;;9.33;7.67;;;;;22.75;54.69;102111.16;5055098;28;45905;-87
2023/10/01 06:53:59;;;;;;;;;10.67;10.67;;;;;22.95;54.35;102117.59;5061665;27;45689;-86
2023/10/01 06:56:27;;;;;;;;;15.33;11.33;;;;;23.15;53.54;102117.72;5078323;27;45576;-82
2023/10/01 06:59:27;;;;;;;;;11.00;11.00;;;;;23.34;53.08;102118.88;5056744;28;45713;-82
2023/10/01 07:01:50;;;;;;;;;9.33;9.33;;;;;23.54;52.77;102122.53;5074491;27;45862;-83
2023/10/01 07:04:20;;;;;;;;;10.33;8.33;;;;;23.69;52.34;102114.88;5068040;27;46724;-88
2023/10/01 07:06:54;;;;;;;;;8.67;8.67;;;;;23.80;52.20;102113.94;5067116;27;45731;-84
2023/10/01 07:09:38;;;;;;;;;11.33;9.33;;;;;23.95;51.75;102117.13;5066518;27;45621;-93
2023/10/01 07:12:03;;;;;;;;;12.33;12.00;;;;;24.10;51.15;102114.06;5065783;28;45480;-82
2023/10/01 07:14:47;;;;;;;;;10.00;8.33;;;;;24.19;51.28;102105.94;5061186;27;45506;-96
2023/10/01 07:17:18;;;;;;;;;9.67;9.67;;;;;24.32;50.80;102105.66;5076243;27;45502;-84
2023/10/01 07:20:00;;;;;;;;;11.67;9.00;;;;;24.42;50.30;102107.53;5063218;28;45408;-95
2023/10/01 07:22:34;;;;;;;;;10.00;9.33;;;;;24.51;50.43;102106.69;5060805;28;45911;-87
2023/10/01 07:25:01;;;;;;;;;9.33;9.00;;;;;24.59;49.94;102101.41;5058383;27;47057;-78
2023/10/01 07:27:27;;;;;;;;;11.00;10.00;;;;;24.66;49.83;102104.41;5065927;27;45539;-81
2023/10/01 07:29:56;;;;;;;;;8.67;7.00;;;;;24.74;49.74;102098.25;5078280;27;45559;-84
2023/10/01 07:32:24;;;;;;;;;10.33;10.33;;;;;24.81;49.67;102106.69;5069389;27;45858;-79
2023/10/01 07:35:04;;;;;;;;;9.33;9.33;;;;;24.88;49.67;102107.00;5079138;27;47240;-76
2023/10/01 07:37:37;;;;;;;;;10.33;9.33;;;;;24.90;48.99;102104.97;5078029;27;45571;-78
2023/10/01 07:40:09;;;;;;;;;11.00;10.33;;;;;24.97;49.12;102109.69;5084173;27;45577;-81
2023/10/01 07:42:46;;;;;;;;;7.67;7.00;;;;;25.03;49.02;102116.41;5085201;27;45783;-77
2023/10/01 07:45:16;;;;;;;;;11.00;10.00;;;;;25.06;48.57;102109.81;5072032;27;46106;-78
2023/10/01 07:47:45;;;;;;;;;10.33;10.33;;;;;25.11;48.63;102118.38;5073117;28;45853;-84
2023/10/01 07:50:12;;;;;;;;;8.00;7.67;;;;;25.14;48.33;102118.09;5068090;27;45973;-79
2023/10/01 07:52:41;;;;;;;;;11.67;10.67;;;;;25.15;48.24;102111.66;5073450;28;45680;-81
2023/10/01 07:58:16;;;;;;;;;10.00;10.00;;;;;25.22;47.81;102112.78;5068819;28;45526;-81
2023/10/01 08:00:41;;;;;;;;;13.67;10.33;;;;;25.25;48.11;102114.34;5066601;27;45602;-89
2023/10/01 08:05:50;;;;;;;;;14.00;12.33;;;;;25.34;47.64;102118.88;5071874;28;45536;-82
2023/10/01 08:08:37;;;;;;;;;11.33;10.00;;;;;25.36;47.63;102116.03;5073489;28;45666;-81
2023/10/01 08:11:03;;;;;;;;;10.67;7.67;;;;;25.35;47.68;102112.47;5068571;28;45630;-79
2023/10/01 08:13:30;;;;;;;;;9.00;8.67;;;;;25.42;47.80;102114.59;5067688;28;45456;-79
2023/10/01 08:16:01;;;;;;;;;10.67;10.00;;;;;25.39;47.88;102105.72;5071404;28;45531;-84
2023/10/01 08:18:34;;;;;;;;;10.00;10.00;;;;;25.46;48.23;102116.00;5072458;28;45526;-86
2023/10/01 08:21:02;;;;;;;;;10.00;7.33;;;;;25.49;47.76;102116.56;5071523;28;45505;-92
2023/10/01 08:23:33;;;;;;;;;14.00;10.67;;;;;25.52;47.23;102123.56;5066159;28;45583;-80
2023/10/01 08:28:57;;;;;;;;;6.00;6.00;;;;;25.53;47.43;102126.13;5072089;28;45769;-90
2023/10/01 08:34:27;;;;;;;;;12.00;9.00;;;;;25.60;47.04;102123.72;5061150;27;46481;-83
2023/10/01 08:37:06;;;;;;;;;7.33;7.33;;;;;25.63;47.22;102128.00;5067577;28;46165;-95
2023/10/01 08:39:47;;;;;;;;;9.00;9.00;;;;;25.65;46.70;102126.84;5067872;28;45696;-91
2023/10/01 13:06:46;;;;;;;;;6.33;6.33;;;;;23.16;53.45;101954.22;5063746;27;45884;-79
2023/10/01 13:09:53;;;;;;;;;12.33;10.33;;;;;23.30;53.44;101953.00;5080982;27;45616;-85
2023/10/01 13:11:59;;;;;;;;;11.00;10.67;;;;;23.52;52.59;101951.97;5063428;28;45786;-87
2023/10/01 13:14:34;;;;;;;;;9.33;9.33;;;;;23.74;52.70;101941.00;5063893;28;45514;-89
2023/10/01 13:17:01;;;;;;;;;10.67;9.00;;;;;23.89;52.50;101927.88;5062560;27;51508;-86
2023/10/01 13:19:33;;;;;;;;;10.00;8.00;;;;;24.16;51.85;101932.59;5066745;27;45630;-87
2023/10/01 13:22:00;;;;;;;;;9.67;9.00;;;;;24.39;51.09;101928.75;5063805;28;45558;-81
2023/10/01 13:24:29;;;;;;;;;11.00;11.00;;;;;24.55;50.83;101923.56;5063727;27;45731;-81
2023/10/01 13:27:10;;;;;;;;;10.67;8.67;;;;;24.78;50.77;101934.06;5061860;27;45699;-81
2023/10/01 13:29:35;;;;;;;;;12.67;9.00;;;;;24.96;50.45;101933.28;5066458;27;45590;-81
2023/10/01 13:32:03;;;;;;;;;15.00;10.67;;;;;25.15;50.24;101934.22;5062346;27;45701;-82
2023/10/01 13:34:48;;;;;;;;;7.33;7.33;;;;;25.31;49.73;101934.44;5061752;27;45698;-83
2023/10/01 13:37:26;;;;;;;;;8.67;8.00;;;;;25.48;49.47;101921.88;5065030;27;45604;-80
2023/10/01 13:40:10;;;;;;;;;16.67;12.00;;;;;25.64;48.80;101923.09;5062864;27;45593;-80
2023/10/01 14:10:04;;;;;;;;;8.33;7.33;;;;;26.62;46.42;101896.84;5054701;28;45702;-77
2023/10/01 14:12:43;;;;;;;;;10.33;8.00;;;;;26.70;46.90;101896.03;5054292;28;45694;-77
2023/10/01 14:15:23;;;;;;;;;11.00;11.00;;;;;26.73;46.27;101892.94;5053327;27;45926;-76
2023/10/01 14:17:52;;;;;;;;;7.67;7.67;;;;;26.77;46.57;101888.91;5042430;28;45648;-77
2023/10/01 14:23:39;;;;;;;;;8.00;7.33;;;;;26.86;46.06;101876.19;5043228;28;45792;-77
2023/10/01 14:26:20;;;;;;;;;10.67;9.00;;;;;26.90;46.31;101873.97;5039474;28;46840;-77
2023/10/01 14:28:46;;;;;;;;;11.33;10.00;;;;;26.93;45.57;101869.09;5044085;28;46353;-76
2023/10/01 14:31:14;;;;;;;;;8.00;7.00;;;;;26.94;45.51;101862.59;5048146;28;46317;-78
2023/10/01 14:33:40;;;;;;;;;10.33;8.67;;;;;26.96;45.55;101866.03;5052494;28;45606;-77
2023/10/01 14:36:06;;;;;;;;;10.67;10.33;;;;;26.98;46.09;101860.44;5050636;28;45774;-78
2023/10/01 14:38:43;;;;;;;;;10.33;8.67;;;;;27.00;45.35;101852.06;5067341;28;45558;-78
